Terminal Aerodrome Forecast
Issued by NWS Grand Forks, ND

Home | Current Version | Previous Version | Graphics & Text | Print | Product List | Glossary On
Versions: 1 2 3 4 5 6 7 8 9 10 11 12 13 14 15 16 17 18 19 20
000
FTUS43 KFGF 191019 AAA
TAFFAR
TAF AMD
KFAR 191019Z 1910/2006 17010KT 5SM BR SKC
      TEMPO 1910/1911 3/4SM BR
     FM191100 17009KT 1/4SM FZFG BKN002
     FM191500 17008KT P6SM SCT010
      TEMPO 1915/1917 3SM BR BKN010
     FM192200 17008KT P6SM BKN090
     FM200300 16008KT P6SM BKN030
     FM200500 16008KT P6SM BKN015=

USA.gov is the U.S. government's official web portal to all federal, state and local government web resources and services.